Time;durP1;ratioP1;P1;durP2;ratioP2;P2;SDS_P1;SDS_P2;PMS_P1;PMS_P2;Temp;Humidity;BMP_temperature;BMP_pressure;BME280_temperature;BME280_humidity;BME280_pressure;Samples;Min_cycle;Max_cycle;Signal;HPM_P1;HPM_P2
2022/06/08 16:19:06;;;;;;;14.77;14.07;;;;;;;;;;5130792;27;20551;-69
2022/06/08 16:21:35;;;;;;;15.23;14.52;;;;;;;;;;5130258;27;20195;-70
2022/06/08 16:24:02;;;;;;;14.30;13.70;;;;;;;;;;5130162;27;20685;-69
2022/06/08 16:26:29;;;;;;;14.70;14.10;;;;;;;;;;5130055;27;20566;-69
2022/06/08 16:28:56;;;;;;;14.70;14.00;;;;;;;;;;5130086;27;20249;-69
2022/06/08 16:31:23;;;;;;;14.23;13.63;;;;;;;;;;5130110;27;20657;-69
2022/06/08 16:33:50;;;;;;;14.90;14.30;;;;;;;;;;5129990;27;20253;-69
2022/06/08 16:36:19;;;;;;;13.60;13.10;;;;;;;;;;5129937;27;20189;-68
2022/06/08 16:38:46;;;;;;;13.43;12.93;;;;;;;;;;5129925;27;20189;-69
2022/06/08 16:41:13;;;;;;;14.20;13.60;;;;;;;;;;5129797;27;20250;-69
2022/06/08 16:43:42;;;;;;;13.32;12.82;;;;;;;;;;5129859;27;20196;-71
2022/06/08 16:46:10;;;;;;;13.43;12.93;;;;;;;;;;5129773;27;20727;-73
2022/06/08 16:48:37;;;;;;;14.20;13.70;;;;;;;;;;5129665;27;20270;-82
2022/06/08 16:51:06;;;;;;;17.33;16.42;;;;;;;;;;5129659;27;20201;-71
2022/06/08 16:53:36;;;;;;;16.25;15.45;;;;;;;;;;5129931;27;20676;-71
2022/06/08 16:56:03;;;;;;;15.15;14.35;;;;;;;;;;5129574;27;20745;-72
2022/06/08 17:01:14;;;;;;;14.30;13.70;;;;;;;;;;5129911;28;20289;-77
2022/06/08 17:03:41;;;;;;;13.48;12.88;;;;;;;;;;5129426;27;20195;-69
2022/06/08 17:06:08;;;;;;;13.10;12.60;;;;;;;;;;5129394;27;20547;-76
2022/06/08 17:08:37;;;;;;;13.77;13.18;;;;;;;;;;5129223;27;20228;-71
2022/06/08 17:13:50;;;;;;;12.38;11.88;;;;;;;;;;5129658;28;20739;-84
2022/06/08 17:16:17;;;;;;;12.20;11.70;;;;;;;;;;5129199;27;20239;-72
2022/06/08 17:18:44;;;;;;;11.75;11.35;;;;;;;;;;5122366;27;20766;-72
2022/06/08 17:21:11;;;;;;;11.93;11.45;;;;;;;;;;5116301;28;20197;-72
2022/06/08 17:23:39;;;;;;;12.20;11.70;;;;;;;;;;5115373;28;20201;-71
2022/06/08 17:26:07;;;;;;;12.00;11.50;;;;;;;;;;5115284;27;20200;-71
2022/06/08 17:28:34;;;;;;;11.55;11.05;;;;;;;;;;5115212;28;20225;-70
2022/06/08 17:31:03;;;;;;;12.32;11.82;;;;;;;;;;5115459;28;20558;-71
2022/06/08 17:33:30;;;;;;;13.27;12.68;;;;;;;;;;5115474;28;20193;-71
2022/06/08 17:35:57;;;;;;;12.88;12.27;;;;;;;;;;5115115;28;20193;-71
2022/06/08 17:38:24;;;;;;;13.00;12.40;;;;;;;;;;5115078;28;20201;-70
2022/06/08 17:40:53;;;;;;;13.07;12.48;;;;;;;;;;5115358;28;20250;-71
2022/06/08 17:43:20;;;;;;;12.32;11.82;;;;;;;;;;5114961;28;20197;-71
2022/06/08 17:45:47;;;;;;;14.27;13.57;;;;;;;;;;5115213;28;20197;-71
2022/06/08 17:48:14;;;;;;;14.80;14.00;;;;;;;;;;5115094;28;20341;-71
2022/06/08 17:50:41;;;;;;;15.80;14.90;;;;;;;;;;5114854;28;20654;-71
2022/06/08 17:53:08;;;;;;;16.83;15.93;;;;;;;;;;5115106;28;20254;-71
2022/06/08 17:55:35;;;;;;;15.98;15.07;;;;;;;;;;5114735;28;20661;-71
2022/06/08 17:58:04;;;;;;;16.30;15.40;;;;;;;;;;5114700;28;20189;-71
2022/06/08 18:00:31;;;;;;;16.52;15.63;;;;;;;;;;5114667;28;20658;-71
2022/06/08 18:02:58;;;;;;;15.60;14.80;;;;;;;;;;5114962;28;20270;-71
2022/06/08 18:05:25;;;;;;;15.40;14.50;;;;;;;;;;5114865;28;20225;-71
2022/06/08 18:07:52;;;;;;;15.13;14.32;;;;;;;;;;5114481;28;20256;-71
2022/06/08 18:10:21;;;;;;;15.45;14.65;;;;;;;;;;5114799;28;20297;-71
2022/06/08 18:12:48;;;;;;;15.07;14.27;;;;;;;;;;5114379;28;20654;-71
2022/06/08 18:15:17;;;;;;;16.27;15.38;;;;;;;;;;5114406;28;20254;-71
2022/06/08 18:17:44;;;;;;;16.00;15.10;;;;;;;;;;5114272;28;20595;-71
2022/06/08 18:20:17;;;;;;;16.00;15.10;;;;;;;;;;5114598;28;20197;-71
2022/06/08 18:22:44;;;;;;;15.25;14.35;;;;;;;;;;5114275;28;20200;-71
2022/06/08 18:25:11;;;;;;;16.23;15.32;;;;;;;;;;5114230;28;20196;-71
2022/06/08 18:27:39;;;;;;;16.65;15.75;;;;;;;;;;5114045;28;20217;-71
2022/06/08 18:30:07;;;;;;;15.40;14.60;;;;;;;;;;5113085;28;20616;-71
2022/06/08 18:32:35;;;;;;;16.00;15.20;;;;;;;;;;5114029;28;20197;-71
2022/06/08 18:35:02;;;;;;;15.75;14.95;;;;;;;;;;5114255;28;20272;-78
2022/06/08 18:37:31;;;;;;;15.20;14.48;;;;;;;;;;5113972;28;20196;-70
2022/06/08 18:39:58;;;;;;;15.70;14.90;;;;;;;;;;5114607;28;20280;-71
2022/06/08 18:42:27;;;;;;;15.80;15.00;;;;;;;;;;5114138;28;20196;-70
2022/06/08 18:44:54;;;;;;;14.98;14.27;;;;;;;;;;5113777;28;20198;-71
2022/06/08 18:47:22;;;;;;;16.27;15.48;;;;;;;;;;5113645;28;20282;-71
2022/06/08 18:49:50;;;;;;;16.13;15.32;;;;;;;;;;5113744;28;20221;-70
2022/06/08 18:52:18;;;;;;;16.65;15.85;;;;;;;;;;5113895;28;20189;-71
2022/06/08 18:54:46;;;;;;;15.82;15.02;;;;;;;;;;5113566;28;20242;-71
2022/06/08 18:57:13;;;;;;;17.38;16.48;;;;;;;;;;5113517;28;20811;-71
2022/06/08 18:59:40;;;;;;;18.00;17.10;;;;;;;;;;5113500;28;20659;-71
2022/06/08 19:02:09;;;;;;;17.55;16.65;;;;;;;;;;5113782;28;20193;-71
2022/06/08 19:04:36;;;;;;;17.30;16.40;;;;;;;;;;5113548;28;20216;-70
2022/06/08 19:07:05;;;;;;;18.13;17.13;;;;;;;;;;5113285;28;20674;-71
2022/06/08 19:09:32;;;;;;;18.17;17.17;;;;;;;;;;5113297;27;20193;-71
2022/06/08 19:11:59;;;;;;;16.75;15.85;;;;;;;;;;5113417;28;20195;-71
2022/06/08 19:14:26;;;;;;;18.63;17.63;;;;;;;;;;5113258;28;20284;-71
2022/06/08 19:16:54;;;;;;;17.23;16.33;;;;;;;;;;5112937;28;20193;-71
2022/06/08 19:22:08;;;;;;;15.52;14.73;;;;;;;;;;5113496;28;20272;-71
2022/06/08 19:24:35;;;;;;;15.30;14.50;;;;;;;;;;5113066;28;20221;-71
2022/06/08 19:27:02;;;;;;;14.65;13.95;;;;;;;;;;5113019;28;20201;-71
2022/06/08 19:29:29;;;;;;;15.82;15.13;;;;;;;;;;5113210;28;20581;-70
2022/06/08 19:31:56;;;;;;;15.98;15.27;;;;;;;;;;5112881;28;20250;-70
2022/06/08 19:34:24;;;;;;;15.43;14.82;;;;;;;;;;5113236;28;20197;-71
2022/06/08 19:36:52;;;;;;;15.40;14.80;;;;;;;;;;5112813;28;20199;-71
2022/06/08 19:39:20;;;;;;;14.82;14.23;;;;;;;;;;5112836;28;20275;-70
2022/06/08 19:41:51;;;;;;;14.45;13.93;;;;;;;;;;5112520;28;20571;-71
2022/06/08 19:44:19;;;;;;;13.90;13.40;;;;;;;;;;5112713;28;20635;-71
2022/06/08 19:46:46;;;;;;;14.00;13.50;;;;;;;;;;5112696;28;20246;-71
2022/06/08 19:49:13;;;;;;;14.20;13.70;;;;;;;;;;5112570;28;20225;-70
2022/06/08 19:51:41;;;;;;;14.20;13.70;;;;;;;;;;5112687;28;20296;-70
2022/06/08 19:54:09;;;;;;;14.65;14.15;;;;;;;;;;5112603;28;20188;-71
2022/06/08 19:56:39;;;;;;;14.70;14.20;;;;;;;;;;5112909;28;20628;-71
2022/06/08 19:59:06;;;;;;;14.07;13.57;;;;;;;;;;5112575;28;20250;-70
2022/06/08 20:01:33;;;;;;;13.80;13.30;;;;;;;;;;5113297;28;20197;-70
2022/06/08 20:04:00;;;;;;;13.60;13.20;;;;;;;;;;5112860;28;20193;-71
2022/06/08 20:06:27;;;;;;;13.23;12.82;;;;;;;;;;5112432;28;20206;-70
2022/06/08 20:08:54;;;;;;;13.35;12.95;;;;;;;;;;5112369;28;20255;-70
2022/06/08 20:11:22;;;;;;;13.38;12.98;;;;;;;;;;5112473;28;20280;-80
2022/06/08 20:13:50;;;;;;;12.95;12.55;;;;;;;;;;5112380;28;20678;-71
2022/06/08 20:16:17;;;;;;;12.70;12.30;;;;;;;;;;5112430;28;20651;-71
2022/06/08 20:18:45;;;;;;;12.77;12.38;;;;;;;;;;5112175;28;20232;-71
2022/06/08 20:21:12;;;;;;;12.52;12.13;;;;;;;;;;5112384;28;20195;-71
2022/06/08 20:23:39;;;;;;;12.90;12.50;;;;;;;;;;5112369;28;20283;-71
2022/06/08 20:26:07;;;;;;;13.02;12.63;;;;;;;;;;5112295;28;20658;-71
2022/06/08 20:28:34;;;;;;;13.38;12.98;;;;;;;;;;5112206;28;20330;-80
2022/06/08 20:31:03;;;;;;;13.02;12.63;;;;;;;;;;5112202;28;20284;-71
2022/06/08 20:33:30;;;;;;;13.15;12.75;;;;;;;;;;5112250;28;20663;-72
2022/06/08 20:35:57;;;;;;;13.23;12.82;;;;;;;;;;5112537;28;20201;-76
2022/06/08 20:38:24;;;;;;;12.90;12.50;;;;;;;;;;5112530;28;20634;-71
2022/06/08 20:40:52;;;;;;;14.10;13.60;;;;;;;;;;5112162;28;20551;-71
2022/06/08 20:43:20;;;;;;;14.30;13.80;;;;;;;;;;5112148;28;20193;-71
2022/06/08 20:45:47;;;;;;;14.50;14.00;;;;;;;;;;5112455;28;20624;-71
2022/06/08 20:48:16;;;;;;;13.70;13.30;;;;;;;;;;5112023;28;20308;-71
2022/06/08 20:50:44;;;;;;;13.90;13.40;;;;;;;;;;5112403;28;20718;-71
2022/06/08 20:53:13;;;;;;;13.82;13.32;;;;;;;;;;5112152;28;20225;-72
2022/06/08 20:55:40;;;;;;;13.68;13.18;;;;;;;;;;5115937;28;20193;-71
2022/06/08 20:58:07;;;;;;;13.85;13.35;;;;;;;;;;5115871;28;20288;-70
2022/06/08 21:00:35;;;;;;;14.10;13.60;;;;;;;;;;5115857;28;20610;-71
2022/06/08 21:03:03;;;;;;;13.63;13.13;;;;;;;;;;5115784;28;20291;-71
2022/06/08 21:05:34;;;;;;;13.50;13.00;;;;;;;;;;5115705;28;20738;-79
2022/06/08 21:08:01;;;;;;;13.55;13.05;;;;;;;;;;5116002;28;20671;-71
2022/06/08 21:10:28;;;;;;;13.60;13.10;;;;;;;;;;5115578;27;20189;-71
2022/06/08 21:12:55;;;;;;;14.05;13.55;;;;;;;;;;5115690;28;20401;-72
2022/06/08 21:15:24;;;;;;;14.05;13.65;;;;;;;;;;5115880;28;20204;-71
2022/06/08 21:17:51;;;;;;;14.10;13.70;;;;;;;;;;5115232;27;20607;-71
2022/06/08 21:20:18;;;;;;;13.52;13.13;;;;;;;;;;5115521;28;20256;-72
2022/06/08 21:22:47;;;;;;;13.77;13.38;;;;;;;;;;5115431;28;20755;-71
2022/06/08 21:25:14;;;;;;;13.00;12.60;;;;;;;;;;5115406;28;20751;-72
2022/06/08 21:27:41;;;;;;;12.60;12.20;;;;;;;;;;5115648;28;20193;-72
2022/06/08 21:30:09;;;;;;;12.25;11.85;;;;;;;;;;5115166;28;20235;-71
2022/06/08 21:32:36;;;;;;;12.40;12.00;;;;;;;;;;5115232;28;20251;-72
2022/06/08 21:35:04;;;;;;;12.23;11.82;;;;;;;;;;5115973;28;20192;-71
2022/06/08 21:37:31;;;;;;;12.40;12.00;;;;;;;;;;5115962;28;20205;-71
2022/06/08 21:40:00;;;;;;;12.00;11.60;;;;;;;;;;5115044;28;20193;-71
2022/06/08 21:42:27;;;;;;;12.52;12.13;;;;;;;;;;5115045;28;20674;-71
2022/06/08 21:44:54;;;;;;;13.20;12.80;;;;;;;;;;5115387;28;20201;-71
2022/06/08 21:47:21;;;;;;;12.30;11.90;;;;;;;;;;5115242;28;20201;-72
2022/06/08 21:49:48;;;;;;;12.60;12.20;;;;;;;;;;5114819;28;20236;-72
2022/06/08 21:52:15;;;;;;;12.57;12.18;;;;;;;;;;5114826;28;20200;-72
2022/06/08 21:54:42;;;;;;;12.77;12.38;;;;;;;;;;5115116;28;20193;-71
2022/06/08 21:57:11;;;;;;;12.70;12.30;;;;;;;;;;5114769;28;20196;-71
2022/06/08 21:59:38;;;;;;;12.60;12.20;;;;;;;;;;5114706;28;20193;-71
2022/06/08 22:02:05;;;;;;;12.80;12.40;;;;;;;;;;5114692;28;20197;-80
2022/06/08 22:04:32;;;;;;;12.60;12.20;;;;;;;;;;5114470;28;20651;-72
2022/06/08 22:06:59;;;;;;;12.88;12.48;;;;;;;;;;5114875;28;20615;-71
2022/06/08 22:09:26;;;;;;;12.70;12.30;;;;;;;;;;5114397;28;20232;-71
2022/06/08 22:11:53;;;;;;;13.60;13.10;;;;;;;;;;5114524;28;20633;-72
2022/06/08 22:14:22;;;;;;;13.65;13.15;;;;;;;;;;5114718;28;20247;-72
2022/06/08 22:16:50;;;;;;;14.23;13.73;;;;;;;;;;5114181;28;20228;-71
2022/06/08 22:19:19;;;;;;;14.20;13.70;;;;;;;;;;5114374;28;20289;-71
2022/06/08 22:21:46;;;;;;;13.98;13.48;;;;;;;;;;5114270;28;20197;-72
2022/06/08 22:24:13;;;;;;;13.60;13.10;;;;;;;;;;5114237;28;20254;-71
2022/06/08 22:26:40;;;;;;;13.77;13.27;;;;;;;;;;5114157;28;20197;-71
2022/06/08 22:29:07;;;;;;;14.00;13.50;;;;;;;;;;5114056;28;20229;-71
2022/06/08 22:31:36;;;;;;;13.70;13.20;;;;;;;;;;5114405;28;20193;-71
2022/06/08 22:34:03;;;;;;;13.70;13.20;;;;;;;;;;5114001;28;20576;-71
2022/06/08 22:36:30;;;;;;;13.80;13.30;;;;;;;;;;5114010;28;20697;-71
2022/06/08 22:38:57;;;;;;;14.07;13.57;;;;;;;;;;5113881;28;20197;-72
2022/06/08 22:41:24;;;;;;;13.70;13.20;;;;;;;;;;5114746;28;20246;-72
2022/06/08 22:43:51;;;;;;;13.73;13.23;;;;;;;;;;5113841;28;20732;-73
2022/06/08 22:46:18;;;;;;;13.57;13.07;;;;;;;;;;5113794;28;20200;-71
2022/06/08 22:48:47;;;;;;;13.77;13.27;;;;;;;;;;5113676;28;20225;-72
2022/06/08 22:51:14;;;;;;;13.93;13.43;;;;;;;;;;5113666;28;20213;-71
2022/06/08 22:53:41;;;;;;;14.85;14.25;;;;;;;;;;5113651;28;20229;-71
2022/06/08 22:56:08;;;;;;;14.80;14.20;;;;;;;;;;5113552;28;20193;-73
2022/06/08 22:58:35;;;;;;;15.80;15.20;;;;;;;;;;5113515;27;20628;-72
2022/06/08 23:01:03;;;;;;;15.10;14.50;;;;;;;;;;5113835;28;20570;-76
2022/06/08 23:03:33;;;;;;;14.73;14.13;;;;;;;;;;5113397;28;20197;-73
2022/06/08 23:06:02;;;;;;;14.50;14.00;;;;;;;;;;5113740;28;20226;-72
2022/06/08 23:08:29;;;;;;;14.30;13.80;;;;;;;;;;5113221;28;20727;-72
2022/06/08 23:13:40;;;;;;;14.30;13.80;;;;;;;;;;5113358;28;20564;-72
2022/06/08 23:21:38;;;;;;;14.20;13.70;;;;;;;;;;5113521;28;20603;-72
2022/06/08 23:24:05;;;;;;;14.10;13.60;;;;;;;;;;5113096;28;20266;-78
2022/06/08 23:26:32;;;;;;;14.23;13.73;;;;;;;;;;5113088;28;20232;-72
2022/06/08 23:28:59;;;;;;;14.00;13.50;;;;;;;;;;5112855;28;20242;-74
2022/06/08 23:31:26;;;;;;;13.93;13.43;;;;;;;;;;5112997;28;20276;-71
2022/06/08 23:33:53;;;;;;;14.00;13.50;;;;;;;;;;5113189;28;20193;-72
2022/06/08 23:36:20;;;;;;;14.60;14.10;;;;;;;;;;5112914;28;20193;-71
2022/06/08 23:38:48;;;;;;;13.82;13.32;;;;;;;;;;5112846;28;20197;-71
2022/06/08 23:41:15;;;;;;;14.50;14.00;;;;;;;;;;5112835;28;20193;-71
2022/06/08 23:43:42;;;;;;;14.00;13.50;;;;;;;;;;5112792;28;20250;-72
2022/06/08 23:46:09;;;;;;;13.88;13.38;;;;;;;;;;5112688;28;20193;-72
2022/06/08 23:48:36;;;;;;;13.48;13.07;;;;;;;;;;5112619;28;20190;-75
2022/06/08 23:51:06;;;;;;;14.40;13.90;;;;;;;;;;5112700;28;20245;-72
2022/06/08 23:53:34;;;;;;;14.27;13.77;;;;;;;;;;5112655;28;20199;-71
2022/06/08 23:56:04;;;;;;;14.18;13.68;;;;;;;;;;5112629;28;20237;-71
2022/06/08 23:58:31;;;;;;;13.25;12.85;;;;;;;;;;5112547;28;20193;-72
